Time;durP1;ratioP1;P1;durP2;ratioP2;P2;SDS_P1;SDS_P2;PMS_P1;PMS_P2;Temp;Humidity;BMP_temperature;BMP_pressure;BME280_temperature;BME280_humidity;BME280_pressure;Samples;Min_cycle;Max_cycle;Signal;HPM_P1;HPM_P2
2024/02/14 00:00:15;;;;;;;0.70;0.70;;;6.10;99.90;;;;;;6126872;23;20032;-81
2024/02/14 00:02:43;;;;;;;0.50;0.50;;;6.20;99.90;;;;;;6151425;23;20053;-82
2024/02/14 00:05:10;;;;;;;0.57;0.57;;;6.20;99.90;;;;;;6178801;23;20013;-82
2024/02/14 00:07:37;;;;;;;0.60;0.60;;;6.10;99.90;;;;;;6151241;23;20020;-83
2024/02/14 00:10:05;;;;;;;0.50;0.50;;;6.10;99.90;;;;;;6150024;23;20503;-86
2024/02/14 00:12:35;;;;;;;1.17;1.17;;;6.20;99.90;;;;;;6152380;23;20017;-83
2024/02/14 00:15:03;;;;;;;0.43;0.43;;;6.20;99.90;;;;;;6127181;23;20028;-83
2024/02/14 00:17:29;;;;;;;0.40;0.40;;;6.30;99.90;;;;;;6177668;23;20071;-85
2024/02/14 00:19:55;;;;;;;0.52;0.52;;;6.40;99.90;;;;;;6149346;23;20457;-85
2024/02/14 00:22:21;;;;;;;;;;;6.20;99.90;;;;;;6151330;23;20397;-84
2024/02/14 00:24:47;;;;;;;0.50;0.50;;;6.50;99.90;;;;;;6149897;23;19920;-83
2024/02/14 00:27:14;;;;;;;0.40;0.40;;;6.20;99.90;;;;;;6150314;23;20079;-84
2024/02/14 00:29:40;;;;;;;1.75;1.48;;;6.30;99.90;;;;;;6125738;23;20017;-82
2024/02/14 00:32:06;;;;;;;0.40;0.40;;;6.20;99.90;;;;;;6177575;23;20548;-84
2024/02/14 00:34:32;;;;;;;1.05;1.05;;;6.20;99.90;;;;;;6153583;23;20020;-82
2024/02/14 00:36:59;;;;;;;1.20;1.20;;;6.40;99.90;;;;;;6154015;23;20025;-81
2024/02/14 00:39:25;;;;;;;1.23;1.23;;;6.30;99.90;;;;;;6154525;23;20032;-79
2024/02/14 00:41:52;;;;;;;0.60;0.60;;;6.30;99.90;;;;;;6154504;23;20017;-83
2024/02/14 00:44:19;;;;;;;0.50;0.50;;;6.40;99.90;;;;;;6153843;23;20023;-82
2024/02/14 00:46:45;;;;;;;0.80;0.80;;;6.60;99.90;;;;;;6154781;23;20016;-82
2024/02/14 00:49:11;;;;;;;0.75;0.75;;;6.20;99.90;;;;;;6154685;23;20036;-82
2024/02/14 00:51:39;;;;;;;1.05;1.00;;;6.30;99.90;;;;;;6129581;23;20353;-83
2024/02/14 00:54:06;;;;;;;0.52;0.52;;;6.30;99.90;;;;;;6154182;23;20020;-83
2024/02/14 00:56:32;;;;;;;0.47;0.47;;;6.70;99.90;;;;;;6153389;23;20013;-83
2024/02/14 00:58:57;;;;;;;0.80;0.80;;;6.40;99.90;;;;;;6153343;23;20138;-83
2024/02/14 01:01:23;;;;;;;0.50;0.50;;;6.50;99.90;;;;;;6129948;23;20013;-83
2024/02/14 01:03:49;;;;;;;0.60;0.60;;;6.60;99.90;;;;;;6154197;23;20025;-83
2024/02/14 01:06:15;;;;;;;0.40;0.40;;;6.50;99.90;;;;;;6154153;23;20017;-83
2024/02/14 01:08:41;;;;;;;;;;;6.60;99.90;;;;;;6181573;23;20352;-82
2024/02/14 01:11:08;;;;;;;0.45;0.45;;;6.30;99.90;;;;;;6154090;23;19912;-82
2024/02/14 01:13:34;;;;;;;0.60;0.60;;;6.50;99.90;;;;;;6154767;23;20017;-81
2024/02/14 01:15:59;;;;;;;0.60;0.60;;;6.40;99.90;;;;;;6180860;23;20055;-82
2024/02/14 01:18:25;;;;;;;0.60;0.60;;;6.40;99.90;;;;;;6155227;23;20080;-83
2024/02/14 01:20:51;;;;;;;0.40;0.40;;;6.60;99.90;;;;;;6155184;23;20017;-83
2024/02/14 01:23:17;;;;;;;0.82;0.82;;;6.60;99.90;;;;;;6130323;23;20009;-83
2024/02/14 01:25:43;;;;;;;0.80;0.80;;;6.70;99.90;;;;;;6130600;23;20421;-83
2024/02/14 01:28:09;;;;;;;0.55;0.55;;;6.60;99.90;;;;;;6179899;23;20453;-82
2024/02/14 01:30:35;;;;;;;0.40;0.40;;;6.50;99.90;;;;;;6182183;23;20024;-82
2024/02/14 01:33:03;;;;;;;0.40;0.40;;;6.40;99.90;;;;;;6155820;23;20024;-81
2024/02/14 01:35:29;;;;;;;0.70;0.70;;;6.60;99.90;;;;;;6155267;23;20028;-81
2024/02/14 01:37:55;;;;;;;0.43;0.43;;;6.60;99.90;;;;;;6130772;23;20028;-82
2024/02/14 01:40:21;;;;;;;0.85;0.85;;;6.60;99.90;;;;;;6106215;23;20021;-82
2024/02/14 01:42:47;;;;;;;0.55;0.55;;;6.80;99.90;;;;;;6130586;23;20027;-82
2024/02/14 01:45:13;;;;;;;0.50;0.50;;;7.00;99.90;;;;;;6129926;23;20415;-82
2024/02/14 01:47:41;;;;;;;;;;;7.30;99.90;;;;;;6155153;23;20414;-82
2024/02/14 01:50:09;;;;;;;0.60;0.60;;;6.60;99.90;;;;;;6154643;23;19915;-80
2024/02/14 01:52:35;;;;;;;0.52;0.52;;;6.90;99.90;;;;;;6181637;23;20017;-82
2024/02/14 01:55:02;;;;;;;;;;;6.60;99.90;;;;;;6184185;23;20017;-82
2024/02/14 01:57:28;;;;;;;0.60;0.60;;;7.20;99.90;;;;;;6183063;23;19912;-82
2024/02/14 01:59:54;;;;;;;;;;;6.70;99.90;;;;;;6158025;23;20013;-80
2024/02/14 02:02:20;;;;;;;0.50;0.50;;;6.70;99.90;;;;;;6182300;23;19942;-80
2024/02/14 02:04:46;;;;;;;0.60;0.60;;;6.90;99.90;;;;;;6132185;23;20016;-80
2024/02/14 02:07:12;;;;;;;0.55;0.55;;;6.90;99.90;;;;;;6156791;23;20088;-80
2024/02/14 02:09:38;;;;;;;0.50;0.50;;;7.30;99.90;;;;;;6156574;23;20047;-82
2024/02/14 02:12:07;;;;;;;0.50;0.50;;;6.70;99.90;;;;;;6156967;23;20061;-82
2024/02/14 02:14:33;;;;;;;0.75;0.75;;;6.70;99.90;;;;;;6157553;23;20032;-82
2024/02/14 02:16:59;;;;;;;0.40;0.40;;;6.70;99.90;;;;;;6157604;23;20013;-81
2024/02/14 02:19:25;;;;;;;0.60;0.60;;;6.70;99.90;;;;;;6157434;23;20449;-82
2024/02/14 02:21:52;;;;;;;1.55;1.05;;;6.80;99.90;;;;;;6158452;23;20020;-82
2024/02/14 02:24:18;;;;;;;1.20;1.10;;;6.80;99.90;;;;;;6132901;23;20016;-82
2024/02/14 02:26:43;;;;;;;0.40;0.40;;;6.80;99.90;;;;;;6158022;23;20023;-82
2024/02/14 02:29:09;;;;;;;0.50;0.50;;;6.80;99.90;;;;;;6157648;23;20024;-82
2024/02/14 02:31:36;;;;;;;0.80;0.80;;;6.90;99.90;;;;;;6132474;23;20095;-83
2024/02/14 02:34:02;;;;;;;0.70;0.70;;;6.80;99.90;;;;;;6158097;23;20017;-83
2024/02/14 02:36:29;;;;;;;0.57;0.57;;;6.90;99.90;;;;;;6157053;23;20013;-80
2024/02/14 02:38:57;;;;;;;0.50;0.50;;;6.90;99.90;;;;;;6108880;23;20043;-82
2024/02/14 02:41:24;;;;;;;0.70;0.70;;;6.90;99.90;;;;;;6184127;23;20024;-81
2024/02/14 02:43:50;;;;;;;0.60;0.60;;;6.90;99.90;;;;;;6157802;23;20017;-80
2024/02/14 02:46:16;;;;;;;0.85;0.60;;;6.90;99.90;;;;;;6183919;23;20017;-80
2024/02/14 02:48:41;;;;;;;0.47;0.47;;;7.00;99.90;;;;;;6134064;23;20091;-80
2024/02/14 02:51:07;;;;;;;0.52;0.52;;;7.00;99.90;;;;;;6133905;23;20349;-80
2024/02/14 02:53:34;;;;;;;0.68;0.50;;;7.00;99.90;;;;;;6158910;23;20021;-82
2024/02/14 02:56:00;;;;;;;0.50;0.50;;;7.00;99.90;;;;;;6186039;23;20013;-82
2024/02/14 02:58:26;;;;;;;0.45;0.45;;;7.00;99.90;;;;;;6158141;23;20039;-81
2024/02/14 03:00:55;;;;;;;0.68;0.68;;;7.00;99.90;;;;;;6158401;23;20009;-80
2024/02/14 03:03:21;;;;;;;0.75;0.75;;;7.10;99.90;;;;;;6184031;23;20076;-81
2024/02/14 03:05:47;;;;;;;0.40;0.40;;;7.10;99.90;;;;;;6133005;23;20129;-81
2024/02/14 03:08:15;;;;;;;0.50;0.50;;;7.10;99.90;;;;;;6158317;23;20021;-81
2024/02/14 03:10:41;;;;;;;0.50;0.50;;;7.10;99.90;;;;;;6184429;23;20047;-81
2024/02/14 03:13:11;;;;;;;0.60;0.60;;;7.10;99.90;;;;;;6157401;23;20021;-81
2024/02/14 03:15:37;;;;;;;0.55;0.55;;;7.20;99.90;;;;;;6156385;23;20029;-81
2024/02/14 03:18:07;;;;;;;;;;;7.20;99.90;;;;;;6133933;23;20028;-82
2024/02/14 03:20:33;;;;;;;0.50;0.50;;;7.20;99.90;;;;;;6183418;23;20606;-82
2024/02/14 03:22:59;;;;;;;;;;;7.20;99.90;;;;;;6156874;23;20048;-81
2024/02/14 03:25:26;;;;;;;0.50;0.50;;;7.30;99.90;;;;;;6182885;23;19920;-81
2024/02/14 03:27:53;;;;;;;0.50;0.50;;;7.30;99.90;;;;;;6132145;23;20009;-81
2024/02/14 03:30:22;;;;;;;0.40;0.40;;;7.30;99.90;;;;;;6131969;23;20021;-80
2024/02/14 03:32:49;;;;;;;0.50;0.50;;;7.30;99.90;;;;;;6182766;23;20515;-80
2024/02/14 03:35:15;;;;;;;0.50;0.50;;;7.40;99.90;;;;;;6156215;23;20019;-82
2024/02/14 03:37:47;;;;;;;0.50;0.50;;;7.40;99.90;;;;;;6156252;23;20048;-81
2024/02/14 03:40:13;;;;;;;0.50;0.50;;;7.40;99.90;;;;;;6156124;23;20071;-81
2024/02/14 03:42:41;;;;;;;0.50;0.50;;;7.40;99.90;;;;;;6156024;23;20021;-82
2024/02/14 03:45:08;;;;;;;0.40;0.40;;;7.50;99.90;;;;;;6182907;23;20080;-81
2024/02/14 03:47:34;;;;;;;0.43;0.43;;;7.50;99.90;;;;;;6183010;23;20036;-82
2024/02/14 03:50:00;;;;;;;1.00;0.98;;;7.50;99.90;;;;;;6156413;23;20013;-81
2024/02/14 03:52:26;;;;;;;;;;;7.70;99.90;;;;;;6156518;23;20074;-82
2024/02/14 03:54:52;;;;;;;0.52;0.52;;;7.60;99.90;;;;;;6182737;23;19987;-81
2024/02/14 03:57:18;;;;;;;0.68;0.68;;;7.70;99.90;;;;;;6156145;23;20021;-81
2024/02/14 03:59:44;;;;;;;1.77;1.65;;;7.70;99.90;;;;;;6182653;23;20067;-81
2024/02/14 04:02:10;;;;;;;0.40;0.40;;;7.70;99.90;;;;;;6183256;23;20040;-83
2024/02/14 04:04:38;;;;;;;0.73;0.73;;;7.80;99.90;;;;;;6156432;23;20419;-81
2024/02/14 04:07:04;;;;;;;0.40;0.40;;;7.80;99.90;;;;;;6156597;23;20736;-82
2024/02/14 04:09:30;;;;;;;0.93;0.93;;;7.80;99.90;;;;;;6155834;23;20071;-81
2024/02/14 04:11:55;;;;;;;0.40;0.40;;;7.90;99.90;;;;;;6182969;23;20017;-81
2024/02/14 04:14:21;;;;;;;0.70;0.70;;;8.10;99.90;;;;;;6156634;23;20013;-82
2024/02/14 04:16:47;;;;;;;0.50;0.50;;;7.90;99.90;;;;;;6181403;23;20036;-81
2024/02/14 04:19:13;;;;;;;0.47;0.47;;;8.00;99.90;;;;;;6155796;23;20028;-82
2024/02/14 04:21:38;;;;;;;0.90;0.90;;;8.00;99.90;;;;;;6181486;23;20020;-82
2024/02/14 04:24:04;;;;;;;0.70;0.70;;;8.00;99.90;;;;;;6155911;23;20096;-81
2024/02/14 04:26:30;;;;;;;0.45;0.43;;;8.10;99.90;;;;;;6106481;23;20016;-81
2024/02/14 04:28:57;;;;;;;0.63;0.63;;;8.10;99.90;;;;;;6082652;23;20017;-82
2024/02/14 04:31:22;;;;;;;0.50;0.50;;;8.10;99.90;;;;;;6155056;23;20032;-81
2024/02/14 04:33:51;;;;;;;0.43;0.43;;;8.20;99.90;;;;;;6129635;23;20025;-82
2024/02/14 04:36:20;;;;;;;0.50;0.50;;;8.40;99.90;;;;;;6154314;23;20045;-80
2024/02/14 04:38:47;;;;;;;0.50;0.50;;;8.20;99.90;;;;;;6128811;23;20578;-81
2024/02/14 04:41:14;;;;;;;1.75;0.80;;;8.20;99.90;;;;;;6129984;23;20032;-82
2024/02/14 04:43:40;;;;;;;0.43;0.43;;;8.30;99.90;;;;;;6153796;23;20012;-82
2024/02/14 04:46:07;;;;;;;0.63;0.63;;;8.30;99.90;;;;;;6131204;23;20017;-80
2024/02/14 04:48:33;;;;;;;0.50;0.50;;;8.40;99.90;;;;;;6181874;23;20017;-81
2024/02/14 04:50:59;;;;;;;0.85;0.82;;;8.40;99.90;;;;;;6155765;23;20013;-80
2024/02/14 04:53:25;;;;;;;0.43;0.43;;;8.50;99.90;;;;;;6182317;23;20047;-81
2024/02/14 04:55:50;;;;;;;0.60;0.60;;;8.50;99.90;;;;;;6131362;23;20013;-78
2024/02/14 04:58:16;;;;;;;1.02;0.93;;;8.50;99.90;;;;;;6130234;23;20017;-79
2024/02/14 05:00:42;;;;;;;0.40;0.40;;;8.50;99.90;;;;;;6181343;23;20011;-79
2024/02/14 05:03:10;;;;;;;0.50;0.50;;;8.60;99.90;;;;;;6154667;23;20020;-79
2024/02/14 05:05:35;;;;;;;0.40;0.40;;;8.60;99.90;;;;;;6154770;23;20092;-78
2024/02/14 05:08:04;;;;;;;0.50;0.50;;;8.60;99.90;;;;;;6181527;23;20017;-78
2024/02/14 05:10:31;;;;;;;0.40;0.40;;;8.60;99.90;;;;;;6154965;23;20017;-79
2024/02/14 05:12:57;;;;;;;3.17;1.45;;;8.60;99.90;;;;;;6154012;23;20021;-79
2024/02/14 05:15:23;;;;;;;0.60;0.60;;;8.70;99.90;;;;;;6181461;23;20021;-79
2024/02/14 05:17:49;;;;;;;;;;;8.70;99.90;;;;;;6181605;23;20013;-79
2024/02/14 05:20:16;;;;;;;0.28;0.28;;;8.70;99.90;;;;;;6181569;23;19934;-78
2024/02/14 05:22:42;;;;;;;;;;;8.80;99.90;;;;;;6130803;23;20021;-80
2024/02/14 05:25:09;;;;;;;0.60;0.60;;;8.80;99.90;;;;;;6181631;23;19936;-79
2024/02/14 05:27:35;;;;;;;0.52;0.52;;;8.80;99.90;;;;;;6154150;23;20013;-79
2024/02/14 05:30:05;;;;;;;0.52;0.52;;;8.80;99.90;;;;;;6129517;23;20025;-78
2024/02/14 05:32:34;;;;;;;0.50;0.50;;;8.90;99.90;;;;;;6156523;23;20024;-78
2024/02/14 05:35:00;;;;;;;0.40;0.40;;;8.80;99.90;;;;;;6130416;23;20024;-79
2024/02/14 05:37:29;;;;;;;1.33;1.33;;;8.80;99.90;;;;;;6154869;23;20013;-80
2024/02/14 05:39:55;;;;;;;1.33;1.23;;;8.80;99.90;;;;;;6153775;23;20016;-79
2024/02/14 05:42:21;;;;;;;0.50;0.50;;;8.90;99.90;;;;;;6130277;23;20453;-80
2024/02/14 05:44:47;;;;;;;0.43;0.43;;;8.90;99.90;;;;;;6129780;23;20563;-79
2024/02/14 05:47:13;;;;;;;0.40;0.40;;;8.90;99.90;;;;;;6181219;23;20021;-80
2024/02/14 05:49:39;;;;;;;0.40;0.40;;;8.90;99.90;;;;;;6154599;23;20389;-77
2024/02/14 05:52:06;;;;;;;0.40;0.40;;;8.90;99.90;;;;;;6181198;23;20013;-79
2024/02/14 05:54:32;;;;;;;0.30;0.30;;;8.90;99.90;;;;;;6154751;23;20405;-78
2024/02/14 05:56:58;;;;;;;0.40;0.40;;;8.90;99.90;;;;;;6154534;23;20021;-78
2024/02/14 05:59:24;;;;;;;0.50;0.50;;;9.10;99.90;;;;;;6130181;23;20044;-78
2024/02/14 06:01:49;;;;;;;0.98;0.80;;;8.90;99.90;;;;;;6105745;23;20021;-79
2024/02/14 06:04:15;;;;;;;0.40;0.40;;;9.00;99.90;;;;;;6106291;23;20437;-79
2024/02/14 06:06:41;;;;;;;0.60;0.60;;;9.00;99.90;;;;;;6155173;23;20017;-80
2024/02/14 06:09:10;;;;;;;0.57;0.57;;;8.90;99.90;;;;;;6105682;23;20013;-80
2024/02/14 06:11:38;;;;;;;0.50;0.50;;;9.00;99.90;;;;;;6130881;23;20013;-81
2024/02/14 06:14:08;;;;;;;0.40;0.40;;;9.00;99.90;;;;;;6154804;23;20044;-81
2024/02/14 06:16:34;;;;;;;0.40;0.40;;;8.90;99.90;;;;;;6156560;23;20021;-80
2024/02/14 06:19:00;;;;;;;;;;;9.00;99.90;;;;;;6130953;23;20017;-81
2024/02/14 06:21:26;;;;;;;0.73;0.73;;;9.00;99.90;;;;;;6181409;23;19916;-80
2024/02/14 06:23:52;;;;;;;0.40;0.40;;;9.00;99.90;;;;;;6129839;23;20484;-80
2024/02/14 06:26:18;;;;;;;0.70;0.70;;;9.10;99.90;;;;;;6154260;23;20017;-80
2024/02/14 06:28:45;;;;;;;0.40;0.40;;;9.10;99.90;;;;;;6129098;23;20023;-80
2024/02/14 06:31:11;;;;;;;0.57;0.57;;;9.10;99.90;;;;;;6154423;23;20028;-82
2024/02/14 06:33:36;;;;;;;0.60;0.60;;;9.10;99.90;;;;;;6130761;23;20345;-82
2024/02/14 06:36:03;;;;;;;0.43;0.43;;;9.10;99.90;;;;;;6181280;23;20028;-81
2024/02/14 06:38:28;;;;;;;0.40;0.40;;;9.10;99.90;;;;;;6154640;23;20017;-81
2024/02/14 06:40:54;;;;;;;0.43;0.43;;;9.20;99.90;;;;;;6182072;23;20005;-82
2024/02/14 06:43:20;;;;;;;1.23;0.93;;;9.20;99.90;;;;;;6156989;23;20436;-80
2024/02/14 06:45:47;;;;;;;0.52;0.52;;;9.30;99.90;;;;;;6132299;23;20013;-82
2024/02/14 06:48:12;;;;;;;0.40;0.40;;;9.30;99.90;;;;;;6132493;23;20013;-80
2024/02/14 06:50:38;;;;;;;1.02;1.02;;;9.40;99.90;;;;;;6155784;23;20020;-80
2024/02/14 06:53:04;;;;;;;0.80;0.80;;;9.40;99.90;;;;;;6157210;23;20021;-81
2024/02/14 06:55:33;;;;;;;0.50;0.50;;;9.40;99.90;;;;;;6183661;23;20056;-80
2024/02/14 06:58:00;;;;;;;0.52;0.52;;;9.40;99.90;;;;;;6183525;23;20052;-80
2024/02/14 07:00:25;;;;;;;1.60;1.50;;;9.50;99.90;;;;;;6156455;23;20020;-80
2024/02/14 07:02:51;;;;;;;0.47;0.47;;;9.50;99.90;;;;;;6179236;23;20032;-81
2024/02/14 07:05:17;;;;;;;0.73;0.73;;;9.50;99.90;;;;;;6156537;23;20017;-83
2024/02/14 07:07:42;;;;;;;0.75;0.75;;;9.50;99.90;;;;;;6184544;23;20017;-80
2024/02/14 07:10:08;;;;;;;0.68;0.68;;;9.60;99.90;;;;;;6158778;23;20013;-82
2024/02/14 07:12:36;;;;;;;0.50;0.50;;;9.60;99.90;;;;;;6110350;23;20044;-85
2024/02/14 07:15:04;;;;;;;1.15;0.60;;;9.50;99.90;;;;;;6187406;23;20057;-83
2024/02/14 07:17:30;;;;;;;0.50;0.50;;;9.50;99.90;;;;;;6160022;23;20017;-82
2024/02/14 07:19:55;;;;;;;1.00;1.00;;;9.50;99.90;;;;;;6187511;23;20028;-82
2024/02/14 07:22:21;;;;;;;1.15;1.10;;;9.60;99.90;;;;;;6162506;23;20017;-85
2024/02/14 07:24:47;;;;;;;0.90;0.90;;;9.50;99.90;;;;;;6165517;23;20016;-82
2024/02/14 07:27:15;;;;;;;0.43;0.43;;;9.60;99.90;;;;;;6141159;23;20358;-83
2024/02/14 07:29:40;;;;;;;1.73;1.63;;;9.60;99.90;;;;;;6169743;23;20027;-84
2024/02/14 07:32:06;;;;;;;0.68;0.68;;;9.60;99.90;;;;;;6166242;23;20054;-84
2024/02/14 07:34:32;;;;;;;0.93;0.93;;;9.60;99.90;;;;;;6190158;23;20109;-85
2024/02/14 07:36:58;;;;;;;1.85;1.75;;;9.60;99.90;;;;;;6139314;23;20013;-86
2024/02/14 07:39:24;;;;;;;3.72;1.60;;;9.60;99.90;;;;;;6194298;23;20149;-83
2024/02/14 07:41:51;;;;;;;0.40;0.40;;;9.60;99.90;;;;;;6190346;23;20021;-84
2024/02/14 07:44:17;;;;;;;0.50;0.50;;;9.60;99.90;;;;;;6142192;23;20023;-84
2024/02/14 07:46:43;;;;;;;0.30;0.30;;;9.60;99.90;;;;;;6190760;23;20044;-83
2024/02/14 07:49:09;;;;;;;0.40;0.40;;;9.60;99.90;;;;;;6166778;23;20013;-81
2024/02/14 07:51:38;;;;;;;0.73;0.73;;;9.70;99.90;;;;;;6191455;23;20043;-83
2024/02/14 07:54:05;;;;;;;0.70;0.70;;;9.70;99.90;;;;;;6162731;23;20020;-83
2024/02/14 07:56:31;;;;;;;1.45;1.40;;;9.70;99.90;;;;;;6190054;23;20017;-84
2024/02/14 07:58:57;;;;;;;0.32;0.32;;;9.70;99.90;;;;;;6136848;23;20012;-80
2024/02/14 08:01:23;;;;;;;1.05;0.98;;;9.70;99.90;;;;;;6134592;23;20172;-77
2024/02/14 08:03:49;;;;;;;0.50;0.50;;;9.70;99.90;;;;;;6155774;23;20051;-78
2024/02/14 08:06:14;;;;;;;0.65;0.65;;;9.70;99.90;;;;;;6155425;23;20020;-77
2024/02/14 08:08:40;;;;;;;0.43;0.43;;;9.70;99.90;;;;;;6106996;23;20024;-78
2024/02/14 08:11:06;;;;;;;1.42;1.35;;;9.70;99.90;;;;;;6155238;23;20019;-78
2024/02/14 08:13:32;;;;;;;0.30;0.30;;;9.70;99.90;;;;;;6181897;23;20017;-77
2024/02/14 08:15:58;;;;;;;0.75;0.75;;;9.70;99.90;;;;;;6156860;23;20013;-77
2024/02/14 08:18:27;;;;;;;0.40;0.40;;;9.80;99.90;;;;;;6154927;23;20531;-79
2024/02/14 08:20:53;;;;;;;1.58;1.48;;;9.80;99.90;;;;;;6181326;23;20021;-79
2024/02/14 08:23:19;;;;;;;;;;;9.70;99.90;;;;;;6156314;23;20197;-79
2024/02/14 08:25:46;;;;;;;0.43;0.43;;;9.80;99.90;;;;;;6155105;23;20281;-77
2024/02/14 08:28:12;;;;;;;0.57;0.57;;;9.70;99.90;;;;;;6154685;23;20648;-78
2024/02/14 08:30:37;;;;;;;0.73;0.73;;;9.80;99.90;;;;;;6182753;23;20036;-78
2024/02/14 08:33:03;;;;;;;0.63;0.63;;;9.80;99.90;;;;;;6129083;23;20025;-78
2024/02/14 08:35:29;;;;;;;1.33;1.23;;;9.80;99.90;;;;;;6156929;23;20070;-78
2024/02/14 08:37:55;;;;;;;0.50;0.50;;;9.80;99.90;;;;;;6132041;23;20456;-77
2024/02/14 08:40:21;;;;;;;0.82;0.82;;;9.90;99.90;;;;;;6156677;23;20020;-79
2024/02/14 08:42:47;;;;;;;0.63;0.63;;;9.90;99.90;;;;;;6155894;23;20075;-78
2024/02/14 08:45:12;;;;;;;1.10;1.10;;;9.90;99.90;;;;;;6182408;23;20048;-78
2024/02/14 08:47:39;;;;;;;0.40;0.40;;;9.90;99.90;;;;;;6179856;23;20109;-78
2024/02/14 08:50:04;;;;;;;;;;;10.00;99.90;;;;;;6107158;23;20071;-78
2024/02/14 08:52:30;;;;;;;0.40;0.40;;;10.00;99.90;;;;;;6156246;23;19915;-78
2024/02/14 08:54:57;;;;;;;0.55;0.55;;;10.00;99.90;;;;;;6155581;23;20013;-78
2024/02/14 08:57:23;;;;;;;0.98;0.98;;;10.00;99.90;;;;;;6154938;23;20021;-77
2024/02/14 08:59:49;;;;;;;3.13;2.83;;;10.00;99.90;;;;;;6181444;23;20515;-77
2024/02/14 09:02:16;;;;;;;0.95;0.82;;;10.00;99.90;;;;;;6180302;23;20021;-79
2024/02/14 09:04:42;;;;;;;0.75;0.75;;;10.00;99.90;;;;;;6155883;23;20435;-79
2024/02/14 09:07:08;;;;;;;0.90;0.70;;;10.10;99.90;;;;;;6181543;23;20091;-77
2024/02/14 09:09:34;;;;;;;0.68;0.68;;;10.10;99.90;;;;;;6156214;23;20092;-78
2024/02/14 09:12:02;;;;;;;0.47;0.47;;;10.10;99.90;;;;;;6156635;23;20017;-78
2024/02/14 09:14:29;;;;;;;0.55;0.55;;;10.20;99.90;;;;;;6182012;23;20103;-78
2024/02/14 09:16:55;;;;;;;1.05;0.90;;;10.20;99.90;;;;;;6154916;23;20013;-77
2024/02/14 09:19:21;;;;;;;0.55;0.55;;;10.20;99.90;;;;;;6155487;23;20097;-78
2024/02/14 09:21:47;;;;;;;1.15;1.15;;;10.20;99.90;;;;;;6155672;23;20369;-79
2024/02/14 09:24:13;;;;;;;2.72;2.47;;;10.20;99.90;;;;;;6155938;23;20778;-78
2024/02/14 09:26:39;;;;;;;6.20;2.58;;;10.20;99.90;;;;;;6156288;23;20016;-78
2024/02/14 09:29:05;;;;;;;0.75;0.75;;;10.30;99.90;;;;;;6156008;23;20044;-78
2024/02/14 09:31:31;;;;;;;;;;;10.30;99.90;;;;;;6156719;23;20028;-78
2024/02/14 09:33:57;;;;;;;0.47;0.47;;;10.30;99.90;;;;;;6153655;23;20105;-77
2024/02/14 09:36:24;;;;;;;0.60;0.60;;;10.40;99.90;;;;;;6156319;23;20020;-79
2024/02/14 09:38:51;;;;;;;0.63;0.63;;;10.40;99.90;;;;;;6155690;23;20051;-78
2024/02/14 09:41:36;;;;;;;0.90;0.90;;;10.50;99.90;;;;;;6156544;23;20408;-77
2024/02/14 09:44:03;;;;;;;0.80;0.80;;;10.40;99.90;;;;;;6156413;23;20013;-77
2024/02/14 09:46:30;;;;;;;2.33;1.42;;;10.40;99.90;;;;;;6106606;23;20013;-78
2024/02/14 09:48:59;;;;;;;1.55;0.90;;;10.40;99.90;;;;;;6130919;23;20013;-78
2024/02/14 09:51:25;;;;;;;0.95;0.85;;;10.40;99.90;;;;;;6181827;23;20024;-79
2024/02/14 09:53:50;;;;;;;;;;;10.50;99.90;;;;;;6130896;23;20449;-78
2024/02/14 09:56:18;;;;;;;2.63;1.90;;;10.50;99.90;;;;;;6180778;23;19943;-78
2024/02/14 09:58:50;;;;;;;0.60;0.60;;;10.50;99.90;;;;;;6155377;23;20051;-78
2024/02/14 10:01:23;;;;;;;0.68;0.68;;;10.40;99.90;;;;;;6155347;23;20020;-77
2024/02/14 10:03:53;;;;;;;2.03;1.88;;;10.40;99.90;;;;;;6154788;23;20024;-79
2024/02/14 10:06:20;;;;;;;2.80;0.95;;;10.40;99.90;;;;;;6155239;23;20782;-78
2024/02/14 10:08:49;;;;;;;0.52;0.52;;;10.40;99.90;;;;;;6155586;23;20076;-79
2024/02/14 10:11:17;;;;;;;0.40;0.40;;;10.40;99.90;;;;;;6131640;23;20036;-79
2024/02/14 10:13:46;;;;;;;1.65;1.05;;;10.40;99.90;;;;;;6156530;23;20091;-78
2024/02/14 10:16:12;;;;;;;0.47;0.47;;;10.30;99.90;;;;;;6184968;23;20005;-78
2024/02/14 10:18:39;;;;;;;0.63;0.63;;;10.40;99.90;;;;;;6178789;23;20326;-80
2024/02/14 10:21:05;;;;;;;0.50;0.50;;;10.40;99.90;;;;;;6158024;23;20067;-78
2024/02/14 10:23:32;;;;;;;0.57;0.57;;;10.40;99.90;;;;;;6156759;23;20032;-79
2024/02/14 10:25:58;;;;;;;1.52;1.42;;;10.40;99.90;;;;;;6183620;23;20013;-79
2024/02/14 10:28:24;;;;;;;1.27;1.17;;;10.50;99.90;;;;;;6156623;23;20031;-78
2024/02/14 10:30:50;;;;;;;0.40;0.40;;;10.50;99.90;;;;;;6155479;23;20069;-78
2024/02/14 10:33:17;;;;;;;;;;;10.50;99.90;;;;;;6156015;23;20021;-77
2024/02/14 10:35:43;;;;;;;0.43;0.43;;;10.50;99.90;;;;;;6183381;23;20298;-77
2024/02/14 10:38:09;;;;;;;0.32;0.32;;;10.60;99.90;;;;;;6132884;23;20349;-79
2024/02/14 10:40:38;;;;;;;0.40;0.40;;;10.60;99.90;;;;;;6155751;23;20028;-78
2024/02/14 10:43:09;;;;;;;3.40;1.08;;;10.60;99.90;;;;;;6183383;23;20013;-80
2024/02/14 10:45:36;;;;;;;0.98;0.98;;;10.60;99.90;;;;;;6156978;23;20013;-79
2024/02/14 10:48:06;;;;;;;0.40;0.40;;;10.60;99.90;;;;;;6156528;23;20052;-82
2024/02/14 10:50:36;;;;;;;0.30;0.30;;;10.60;99.90;;;;;;6183655;23;20024;-82
2024/02/14 10:53:06;;;;;;;1.08;1.08;;;10.60;99.90;;;;;;6158655;23;20023;-81
2024/02/14 10:55:33;;;;;;;0.75;0.65;;;10.60;99.90;;;;;;6156745;23;20048;-81
2024/02/14 10:58:00;;;;;;;0.60;0.60;;;10.70;99.90;;;;;;6133929;23;20017;-81
2024/02/14 11:00:26;;;;;;;1.17;0.90;;;10.60;99.90;;;;;;6132664;23;20531;-81
2024/02/14 11:02:54;;;;;;;0.70;0.70;;;10.70;99.90;;;;;;6156736;23;20040;-80
2024/02/14 11:05:23;;;;;;;0.60;0.60;;;10.70;99.90;;;;;;6132454;23;20021;-81
2024/02/14 11:07:53;;;;;;;0.50;0.50;;;10.70;99.90;;;;;;6183846;23;20017;-79
2024/02/14 11:10:21;;;;;;;1.70;1.00;;;10.70;99.90;;;;;;6154470;23;20024;-79
2024/02/14 11:12:50;;;;;;;0.60;0.50;;;10.70;99.90;;;;;;6180897;23;20017;-79
2024/02/14 11:15:17;;;;;;;0.40;0.40;;;10.80;99.90;;;;;;6132755;23;20139;-80
2024/02/14 11:17:43;;;;;;;0.40;0.40;;;10.80;99.90;;;;;;6155889;23;20056;-80
2024/02/14 11:20:19;;;;;;;0.82;0.82;;;10.80;99.90;;;;;;6184318;23;20489;-80
2024/02/14 11:23:11;;;;;;;0.40;0.40;;;10.80;99.90;;;;;;6156139;23;20049;-78
2024/02/14 11:25:38;;;;;;;0.45;0.45;;;10.80;99.90;;;;;;6180657;23;20315;-79
2024/02/14 11:28:19;;;;;;;0.52;0.52;;;10.80;99.90;;;;;;6182384;23;20017;-80
2024/02/14 11:30:45;;;;;;;0.38;0.38;;;10.90;99.90;;;;;;6180783;23;20499;-80
2024/02/14 11:33:18;;;;;;;;;;;10.90;99.90;;;;;;6155817;23;20060;-80
2024/02/14 11:35:51;;;;;;;0.50;0.50;;;10.80;99.90;;;;;;6130942;23;19919;-80
2024/02/14 11:38:18;;;;;;;0.40;0.40;;;10.90;99.90;;;;;;6106815;23;20116;-80
2024/02/14 11:40:44;;;;;;;0.50;0.50;;;10.90;99.90;;;;;;6130418;23;20025;-79
2024/02/14 11:43:13;;;;;;;0.60;0.60;;;10.90;99.90;;;;;;6181599;23;20017;-80
2024/02/14 11:45:41;;;;;;;0.75;0.75;;;10.90;99.90;;;;;;6156811;23;20092;-79
2024/02/14 11:48:12;;;;;;;0.45;0.45;;;10.90;99.90;;;;;;6156574;23;20017;-79
2024/02/14 11:50:43;;;;;;;0.65;0.63;;;10.90;99.90;;;;;;6157436;23;20353;-79
2024/02/14 11:53:11;;;;;;;1.25;1.25;;;10.90;99.90;;;;;;6157915;23;20021;-81
2024/02/14 11:55:38;;;;;;;0.93;0.93;;;11.00;99.90;;;;;;6182731;23;20017;-80
2024/02/14 11:58:10;;;;;;;1.05;1.05;;;11.00;99.90;;;;;;6156524;23;20105;-82
2024/02/14 12:00:44;;;;;;;0.80;0.77;;;11.10;99.90;;;;;;6138149;23;20472;-83
2024/02/14 12:03:20;;;;;;;0.40;0.40;;;11.10;99.90;;;;;;6184451;23;20025;-83
2024/02/14 12:05:47;;;;;;;0.90;0.90;;;11.10;99.90;;;;;;6158586;23;20013;-81
2024/02/14 12:08:14;;;;;;;0.73;0.73;;;11.10;99.90;;;;;;6185862;23;20083;-82
2024/02/14 12:10:43;;;;;;;1.05;1.02;;;11.10;99.90;;;;;;6156915;23;20092;-81
2024/02/14 12:13:13;;;;;;;0.88;0.88;;;11.20;99.90;;;;;;6159024;23;20024;-82
2024/02/14 12:15:46;;;;;;;0.30;0.30;;;11.20;99.90;;;;;;6160027;23;20028;-83
2024/02/14 12:18:13;;;;;;;0.45;0.45;;;11.20;99.90;;;;;;6166899;23;20017;-83
2024/02/14 12:20:39;;;;;;;0.40;0.40;;;11.20;99.90;;;;;;6161178;23;20091;-83
2024/02/14 12:23:05;;;;;;;0.50;0.50;;;11.30;99.90;;;;;;6136931;23;20013;-82
2024/02/14 12:25:32;;;;;;;0.40;0.40;;;11.30;99.90;;;;;;6161223;23;20027;-82
2024/02/14 12:27:58;;;;;;;1.52;1.48;;;11.30;99.90;;;;;;6161408;23;20013;-83
2024/02/14 12:30:42;;;;;;;;;;;11.30;99.90;;;;;;6161765;23;20063;-83
2024/02/14 12:33:09;;;;;;;0.30;0.30;;;11.30;99.90;;;;;;6160419;23;19984;-82
2024/02/14 12:35:41;;;;;;;0.60;0.60;;;11.30;99.90;;;;;;6186192;23;20013;-82
2024/02/14 12:38:09;;;;;;;0.30;0.30;;;11.30;99.90;;;;;;6187377;23;20021;-83
2024/02/14 12:40:38;;;;;;;0.40;0.40;;;11.30;99.90;;;;;;6186924;23;20009;-84
2024/02/14 12:43:05;;;;;;;0.30;0.30;;;11.20;99.90;;;;;;6159940;23;20024;-84
2024/02/14 12:45:31;;;;;;;0.30;0.30;;;11.20;99.90;;;;;;6135083;23;20013;-82
2024/02/14 12:47:57;;;;;;;0.30;0.30;;;11.30;99.90;;;;;;6184123;23;20068;-84
2024/02/14 12:50:23;;;;;;;0.43;0.38;;;11.20;99.90;;;;;;6184770;23;20016;-83
2024/02/14 12:52:48;;;;;;;0.60;0.60;;;11.20;99.90;;;;;;6187426;23;20020;-82
2024/02/14 12:55:15;;;;;;;0.40;0.40;;;11.20;99.90;;;;;;6186306;23;20044;-83